Time;durP1;ratioP1;P1;durP2;ratioP2;P2;SDS_P1;SDS_P2;PMS_P1;PMS_P2;Temp;Humidity;BMP_temperature;BMP_pressure;BME280_temperature;BME280_humidity;BME280_pressure;Samples;Min_cycle;Max_cycle;Signal;HPM_P1;HPM_P2
2024/01/12 00:00:21;;;;;;;17.43;12.03;;;;;;;;;;5021858;28;20486;-55
2024/01/12 00:02:47;;;;;;;16.00;11.47;;;;;;;;;;5020009;28;20441;-55
2024/01/12 00:05:13;;;;;;;15.47;11.83;;;;;;;;;;5020667;28;20439;-55
2024/01/12 00:07:39;;;;;;;15.03;10.87;;;;;;;;;;5009764;28;21012;-55
2024/01/12 00:10:05;;;;;;;17.40;12.20;;;;;;;;;;5014372;28;20876;-54
2024/01/12 00:12:31;;;;;;;16.90;11.63;;;;;;;;;;5015631;28;20429;-55
2024/01/12 00:14:57;;;;;;;16.53;11.83;;;;;;;;;;5017222;28;20990;-55
2024/01/12 00:17:24;;;;;;;17.57;11.97;;;;;;;;;;5013002;28;20952;-56
2024/01/12 00:19:50;;;;;;;19.10;12.80;;;;;;;;;;5021320;28;20414;-55
2024/01/12 00:22:16;;;;;;;17.50;12.27;;;;;;;;;;5023571;28;21004;-55
2024/01/12 00:24:42;;;;;;;17.53;11.93;;;;;;;;;;5021149;28;20188;-55
2024/01/12 00:27:08;;;;;;;16.90;12.33;;;;;;;;;;5026303;28;20435;-55
2024/01/12 00:29:34;;;;;;;16.10;12.40;;;;;;;;;;5027370;28;20440;-56
2024/01/12 00:32:00;;;;;;;18.10;12.93;;;;;;;;;;5020003;28;20456;-55
2024/01/12 00:34:26;;;;;;;23.00;13.50;;;;;;;;;;5015869;28;20463;-55
2024/01/12 00:36:53;;;;;;;18.70;12.97;;;;;;;;;;5031375;28;20420;-54
2024/01/12 00:39:20;;;;;;;17.93;13.50;;;;;;;;;;5023835;28;20444;-55
2024/01/12 00:41:47;;;;;;;17.20;12.77;;;;;;;;;;5023463;28;20467;-54
2024/01/12 00:44:13;;;;;;;16.23;11.53;;;;;;;;;;5014030;28;20834;-55
2024/01/12 00:46:39;;;;;;;17.80;12.50;;;;;;;;;;5017781;28;20414;-55
2024/01/12 00:49:05;;;;;;;19.07;13.37;;;;;;;;;;5016517;28;21242;-55
2024/01/12 00:51:31;;;;;;;17.03;12.13;;;;;;;;;;5014809;28;20406;-55
2024/01/12 00:53:57;;;;;;;17.53;12.80;;;;;;;;;;5019017;28;20414;-55
2024/01/12 00:56:24;;;;;;;18.53;12.90;;;;;;;;;;5018228;28;20510;-56
2024/01/12 00:58:50;;;;;;;18.60;12.67;;;;;;;;;;5022926;28;20971;-56
2024/01/12 01:01:17;;;;;;;17.57;13.10;;;;;;;;;;5016513;28;20412;-55
2024/01/12 01:03:43;;;;;;;19.43;13.53;;;;;;;;;;5020098;28;20874;-55
2024/01/12 01:06:09;;;;;;;17.43;12.07;;;;;;;;;;5015713;28;20929;-55
2024/01/12 01:08:35;;;;;;;16.90;12.43;;;;;;;;;;5014552;28;20433;-56
2024/01/12 01:11:01;;;;;;;18.30;12.60;;;;;;;;;;5021335;28;20178;-54
2024/01/12 01:13:27;;;;;;;17.03;12.27;;;;;;;;;;5013995;28;20417;-53
2024/01/12 01:15:53;;;;;;;17.93;13.10;;;;;;;;;;5012838;28;20194;-53
2024/01/12 01:18:19;;;;;;;19.13;13.10;;;;;;;;;;5012198;28;20488;-54
2024/01/12 01:20:45;;;;;;;16.17;12.53;;;;;;;;;;5024866;28;20396;-53
2024/01/12 01:23:11;;;;;;;17.23;11.47;;;;;;;;;;5023396;28;20466;-53
2024/01/12 01:25:38;;;;;;;19.37;13.07;;;;;;;;;;5029465;28;20471;-53
2024/01/12 01:28:04;;;;;;;20.73;13.57;;;;;;;;;;5015269;28;20414;-54
2024/01/12 01:30:30;;;;;;;18.57;12.80;;;;;;;;;;5022519;28;20473;-53
2024/01/12 01:32:56;;;;;;;17.87;12.27;;;;;;;;;;5011651;28;20182;-53
2024/01/12 01:35:22;;;;;;;16.90;12.07;;;;;;;;;;5017386;28;20213;-54
2024/01/12 01:37:50;;;;;;;20.60;14.10;;;;;;;;;;5014800;28;20437;-53
2024/01/12 01:40:16;;;;;;;19.57;13.23;;;;;;;;;;5021400;28;20436;-54
2024/01/12 01:42:42;;;;;;;18.57;12.10;;;;;;;;;;5019444;28;20456;-53
2024/01/12 01:45:09;;;;;;;18.67;13.47;;;;;;;;;;5019348;28;20487;-53
2024/01/12 01:47:35;;;;;;;17.03;12.87;;;;;;;;;;5014019;28;20429;-53
2024/01/12 01:50:01;;;;;;;19.20;13.07;;;;;;;;;;5022548;28;21253;-53
2024/01/12 01:52:27;;;;;;;20.40;13.67;;;;;;;;;;5013765;28;20480;-54
2024/01/12 01:54:54;;;;;;;18.20;13.07;;;;;;;;;;5018452;28;20492;-54
2024/01/12 01:57:21;;;;;;;18.03;13.10;;;;;;;;;;5016204;28;20818;-53
2024/01/12 01:59:47;;;;;;;18.97;13.53;;;;;;;;;;5018888;28;20932;-53
2024/01/12 02:02:13;;;;;;;20.27;13.33;;;;;;;;;;5026289;28;20927;-53
2024/01/12 02:04:39;;;;;;;18.63;13.27;;;;;;;;;;5020015;28;20417;-54
2024/01/12 02:07:05;;;;;;;23.60;14.27;;;;;;;;;;5023534;28;20436;-53
2024/01/12 02:09:32;;;;;;;21.73;14.20;;;;;;;;;;5020095;28;20402;-53
2024/01/12 02:11:58;;;;;;;19.60;13.40;;;;;;;;;;5014067;28;20415;-53
2024/01/12 02:14:25;;;;;;;17.60;13.10;;;;;;;;;;5014886;28;20414;-54
2024/01/12 02:16:52;;;;;;;21.50;13.47;;;;;;;;;;5023159;28;20413;-53
2024/01/12 02:19:18;;;;;;;19.23;13.60;;;;;;;;;;5014091;28;20512;-53
2024/01/12 02:21:44;;;;;;;22.90;13.57;;;;;;;;;;5018295;28;20417;-53
2024/01/12 02:24:10;;;;;;;23.83;14.77;;;;;;;;;;5020569;28;20913;-53
2024/01/12 02:26:36;;;;;;;21.93;13.67;;;;;;;;;;5012337;28;20984;-53
2024/01/12 02:29:03;;;;;;;19.77;13.37;;;;;;;;;;5023049;28;20402;-54
2024/01/12 02:31:29;;;;;;;20.60;13.23;;;;;;;;;;5016696;28;20425;-53
2024/01/12 02:33:55;;;;;;;20.90;14.23;;;;;;;;;;5013485;28;20409;-54
2024/01/12 02:36:21;;;;;;;19.33;13.37;;;;;;;;;;5013270;28;20510;-54
2024/01/12 02:38:50;;;;;;;23.00;13.87;;;;;;;;;;5021416;28;20401;-53
2024/01/12 02:41:16;;;;;;;20.97;13.73;;;;;;;;;;5026658;28;20424;-53
2024/01/12 02:43:42;;;;;;;23.97;14.43;;;;;;;;;;5027491;28;20444;-53
2024/01/12 02:46:08;;;;;;;22.13;13.70;;;;;;;;;;5022946;28;20504;-53
2024/01/12 02:48:34;;;;;;;21.27;13.30;;;;;;;;;;5012762;28;20417;-54
2024/01/12 02:51:00;;;;;;;21.43;12.97;;;;;;;;;;5015894;28;20417;-54
2024/01/12 02:53:27;;;;;;;20.30;13.87;;;;;;;;;;5019607;28;20474;-54
2024/01/12 02:55:53;;;;;;;25.87;14.27;;;;;;;;;;5025389;28;20456;-54
2024/01/12 02:58:19;;;;;;;19.77;13.40;;;;;;;;;;5012287;28;20434;-53
2024/01/12 03:00:45;;;;;;;20.90;13.60;;;;;;;;;;5016320;28;20917;-54
2024/01/12 03:03:11;;;;;;;21.13;14.63;;;;;;;;;;5024998;28;20401;-54
2024/01/12 03:05:37;;;;;;;23.50;14.17;;;;;;;;;;5018141;28;20445;-53
2024/01/12 03:08:03;;;;;;;22.33;14.47;;;;;;;;;;5016033;28;20982;-53
2024/01/12 03:10:29;;;;;;;27.40;14.37;;;;;;;;;;5022907;28;20888;-53
2024/01/12 03:12:55;;;;;;;21.63;13.87;;;;;;;;;;5014292;28;20966;-54
2024/01/12 03:15:21;;;;;;;23.27;13.50;;;;;;;;;;5022941;28;20863;-54
2024/01/12 03:17:47;;;;;;;23.17;14.50;;;;;;;;;;5029096;28;20401;-53
2024/01/12 03:20:13;;;;;;;23.97;13.60;;;;;;;;;;5020141;28;20648;-54
2024/01/12 03:22:39;;;;;;;23.90;13.93;;;;;;;;;;5014925;28;20401;-53
2024/01/12 03:25:06;;;;;;;21.33;13.43;;;;;;;;;;5015716;28;20206;-55
2024/01/12 03:27:32;;;;;;;22.77;14.53;;;;;;;;;;5011188;28;20762;-55
2024/01/12 03:29:58;;;;;;;26.43;13.90;;;;;;;;;;5024724;28;21057;-55
2024/01/12 03:32:24;;;;;;;21.93;13.07;;;;;;;;;;5014536;28;20914;-56
2024/01/12 03:34:51;;;;;;;23.20;13.80;;;;;;;;;;5020112;28;20525;-55
2024/01/12 03:37:17;;;;;;;26.77;13.33;;;;;;;;;;5013288;28;20875;-56
2024/01/12 03:39:43;;;;;;;23.57;14.00;;;;;;;;;;5016323;28;20424;-55
2024/01/12 03:42:10;;;;;;;19.50;12.70;;;;;;;;;;5023881;28;20491;-56
2024/01/12 03:44:36;;;;;;;20.97;13.17;;;;;;;;;;5019620;28;20468;-55
2024/01/12 03:47:03;;;;;;;25.67;14.70;;;;;;;;;;5014297;28;20497;-56
2024/01/12 03:49:29;;;;;;;24.93;14.70;;;;;;;;;;5019754;28;20420;-54
2024/01/12 03:51:55;;;;;;;25.90;14.10;;;;;;;;;;5017911;28;20770;-55
2024/01/12 03:54:22;;;;;;;22.60;13.27;;;;;;;;;;5015167;28;20429;-55
2024/01/12 03:56:48;;;;;;;20.93;13.30;;;;;;;;;;5012374;28;20528;-55
2024/01/12 03:59:14;;;;;;;20.17;13.03;;;;;;;;;;5015914;28;20532;-55
2024/01/12 04:01:44;;;;;;;22.97;13.60;;;;;;;;;;5015774;28;20433;-55
2024/01/12 04:04:10;;;;;;;22.00;13.03;;;;;;;;;;5017981;28;20421;-55
2024/01/12 04:06:36;;;;;;;23.57;13.50;;;;;;;;;;5014114;28;20410;-56
2024/01/12 04:09:02;;;;;;;24.23;14.07;;;;;;;;;;5028096;28;21107;-56
2024/01/12 04:11:28;;;;;;;26.83;13.67;;;;;;;;;;5014509;28;20429;-55
2024/01/12 04:13:54;;;;;;;24.97;14.47;;;;;;;;;;5016509;28;20429;-55
2024/01/12 04:16:21;;;;;;;21.13;13.57;;;;;;;;;;5020794;28;20471;-55
2024/01/12 04:18:47;;;;;;;22.47;14.37;;;;;;;;;;5015001;28;20414;-56
2024/01/12 04:21:13;;;;;;;20.63;12.70;;;;;;;;;;5015783;28;20420;-55
2024/01/12 04:23:39;;;;;;;22.87;13.63;;;;;;;;;;5021578;28;20459;-54
2024/01/12 04:26:06;;;;;;;27.77;14.50;;;;;;;;;;5020098;28;20502;-55
2024/01/12 04:28:32;;;;;;;27.13;14.13;;;;;;;;;;5016441;28;20425;-56
2024/01/12 04:30:58;;;;;;;24.90;13.70;;;;;;;;;;5014068;28;20417;-56
2024/01/12 04:33:25;;;;;;;20.83;12.90;;;;;;;;;;5017465;28;20862;-56
2024/01/12 04:35:51;;;;;;;22.50;13.27;;;;;;;;;;5019615;28;20460;-51
2024/01/12 04:38:19;;;;;;;23.67;14.33;;;;;;;;;;5014693;28;20170;-52
2024/01/12 04:40:45;;;;;;;21.90;14.30;;;;;;;;;;5026952;28;20444;-51
2024/01/12 04:43:11;;;;;;;27.47;14.70;;;;;;;;;;5028962;28;20467;-51
2024/01/12 04:45:37;;;;;;;23.73;13.27;;;;;;;;;;5025862;28;20279;-51
2024/01/12 04:48:03;;;;;;;23.80;14.47;;;;;;;;;;5021242;28;20410;-51
2024/01/12 04:50:29;;;;;;;28.17;13.97;;;;;;;;;;5029291;28;20413;-52
2024/01/12 04:52:55;;;;;;;23.10;14.63;;;;;;;;;;5016597;28;20468;-51
2024/01/12 04:55:21;;;;;;;22.10;12.63;;;;;;;;;;5026249;28;20539;-51
2024/01/12 04:57:47;;;;;;;24.83;13.77;;;;;;;;;;5016068;28;20409;-51
2024/01/12 05:00:14;;;;;;;27.27;14.53;;;;;;;;;;5012923;28;20487;-52
2024/01/12 05:02:40;;;;;;;24.03;12.67;;;;;;;;;;5020067;28;20429;-52
2024/01/12 05:05:08;;;;;;;23.33;14.80;;;;;;;;;;5023661;28;20428;-51
2024/01/12 05:07:34;;;;;;;25.43;14.50;;;;;;;;;;5019835;28;20508;-51
2024/01/12 05:10:03;;;;;;;22.83;13.73;;;;;;;;;;5028350;28;20412;-52
2024/01/12 05:12:29;;;;;;;24.80;14.40;;;;;;;;;;5023436;28;20409;-51
2024/01/12 05:14:55;;;;;;;23.80;13.63;;;;;;;;;;5024581;28;20863;-51
2024/01/12 05:17:22;;;;;;;24.63;13.77;;;;;;;;;;5013032;28;20772;-50
2024/01/12 05:19:48;;;;;;;25.43;13.13;;;;;;;;;;5016018;28;20406;-51
2024/01/12 05:22:15;;;;;;;25.40;14.63;;;;;;;;;;5022074;28;20409;-51
2024/01/12 05:24:41;;;;;;;27.97;16.00;;;;;;;;;;5015853;28;20440;-52
2024/01/12 05:27:07;;;;;;;24.63;14.10;;;;;;;;;;5022119;28;20412;-50
2024/01/12 05:29:33;;;;;;;23.17;12.97;;;;;;;;;;5020957;28;20493;-51
2024/01/12 05:31:59;;;;;;;26.23;14.60;;;;;;;;;;5013610;28;20414;-50
2024/01/12 05:34:25;;;;;;;23.80;14.20;;;;;;;;;;5027158;28;20416;-51
2024/01/12 05:36:51;;;;;;;26.93;14.67;;;;;;;;;;5024168;28;20461;-50
2024/01/12 05:39:18;;;;;;;26.33;15.47;;;;;;;;;;5015514;28;20406;-50
2024/01/12 05:41:44;;;;;;;25.17;15.27;;;;;;;;;;5021707;28;20665;-50
2024/01/12 05:44:10;;;;;;;23.97;13.63;;;;;;;;;;5016386;28;20571;-50
2024/01/12 05:46:36;;;;;;;24.30;14.80;;;;;;;;;;5017911;28;20463;-51
2024/01/12 05:49:04;;;;;;;27.10;14.83;;;;;;;;;;5025130;28;20440;-50
2024/01/12 05:51:30;;;;;;;23.67;14.87;;;;;;;;;;5018228;28;20430;-52
2024/01/12 05:53:56;;;;;;;25.60;14.80;;;;;;;;;;5020948;28;21373;-52
2024/01/12 05:56:23;;;;;;;22.40;13.50;;;;;;;;;;5020860;28;20459;-51
2024/01/12 05:58:50;;;;;;;28.07;14.03;;;;;;;;;;5015098;28;20819;-51
2024/01/12 06:01:17;;;;;;;25.10;13.63;;;;;;;;;;5016186;28;20453;-50
2024/01/12 06:03:45;;;;;;;19.97;12.87;;;;;;;;;;5020287;28;20432;-51
2024/01/12 06:06:11;;;;;;;24.23;13.67;;;;;;;;;;5021241;28;20424;-52
2024/01/12 06:08:37;;;;;;;23.43;13.27;;;;;;;;;;5016665;28;20475;-51
2024/01/12 06:11:04;;;;;;;24.70;14.73;;;;;;;;;;5022618;28;20428;-50
2024/01/12 06:13:30;;;;;;;22.20;13.33;;;;;;;;;;5017001;28;20862;-51
2024/01/12 06:15:56;;;;;;;22.20;12.97;;;;;;;;;;5014682;28;20464;-52
2024/01/12 06:18:22;;;;;;;25.10;13.83;;;;;;;;;;5022247;28;20405;-51
2024/01/12 06:20:48;;;;;;;24.30;14.27;;;;;;;;;;5017849;28;20436;-51
2024/01/12 06:23:14;;;;;;;26.33;14.70;;;;;;;;;;5022611;28;20486;-52
2024/01/12 06:25:40;;;;;;;27.05;15.60;;;;;;;;;;5014247;28;20795;-51
2024/01/12 06:28:06;;;;;;;27.57;15.83;;;;;;;;;;5024689;28;20653;-52
2024/01/12 06:30:33;;;;;;;35.30;16.23;;;;;;;;;;5017644;28;20438;-51
2024/01/12 06:32:59;;;;;;;29.43;15.13;;;;;;;;;;5017846;28;20432;-51
2024/01/12 06:35:25;;;;;;;33.83;17.43;;;;;;;;;;5017405;28;20567;-51
2024/01/12 06:37:51;;;;;;;31.27;16.40;;;;;;;;;;5018473;28;20186;-54
2024/01/12 06:40:17;;;;;;;35.30;17.27;;;;;;;;;;5019792;28;20520;-51
2024/01/12 06:42:44;;;;;;;27.43;15.53;;;;;;;;;;5013024;28;20516;-50
2024/01/12 06:45:11;;;;;;;27.63;16.03;;;;;;;;;;5025384;28;20824;-51
2024/01/12 06:47:38;;;;;;;31.23;15.70;;;;;;;;;;5026743;28;20896;-51
2024/01/12 06:50:04;;;;;;;32.27;17.17;;;;;;;;;;5022737;28;20440;-50
2024/01/12 06:52:30;;;;;;;31.07;17.43;;;;;;;;;;5021778;28;20420;-50
2024/01/12 06:54:56;;;;;;;28.67;15.97;;;;;;;;;;5023982;28;20464;-53
2024/01/12 06:57:23;;;;;;;30.87;16.57;;;;;;;;;;5021829;28;20503;-53
2024/01/12 06:59:49;;;;;;;31.77;16.23;;;;;;;;;;5016458;28;20422;-53
2024/01/12 07:02:16;;;;;;;31.13;16.47;;;;;;;;;;5016615;28;20404;-53
2024/01/12 07:04:42;;;;;;;31.37;15.73;;;;;;;;;;5016138;28;20518;-53
2024/01/12 07:07:09;;;;;;;27.80;15.47;;;;;;;;;;5019259;28;20432;-53
2024/01/12 07:09:35;;;;;;;28.03;15.63;;;;;;;;;;5017084;28;20405;-53
2024/01/12 07:12:01;;;;;;;26.47;15.10;;;;;;;;;;5020961;28;20885;-53
2024/01/12 07:14:27;;;;;;;28.33;15.03;;;;;;;;;;5015646;28;20432;-53
2024/01/12 07:16:54;;;;;;;27.17;15.90;;;;;;;;;;5021863;28;20514;-53
2024/01/12 07:19:20;;;;;;;26.93;15.47;;;;;;;;;;5019757;28;20424;-53
2024/01/12 07:21:46;;;;;;;27.73;15.27;;;;;;;;;;5027697;28;20401;-53
2024/01/12 07:24:12;;;;;;;29.03;16.77;;;;;;;;;;5016402;28;20436;-53
2024/01/12 07:26:38;;;;;;;26.50;14.60;;;;;;;;;;5026559;28;20405;-53
2024/01/12 07:29:05;;;;;;;24.73;15.27;;;;;;;;;;5017968;28;20413;-53
2024/01/12 07:31:33;;;;;;;25.17;15.37;;;;;;;;;;5015108;28;20460;-53
2024/01/12 07:33:59;;;;;;;26.10;14.87;;;;;;;;;;5020491;28;20440;-53
2024/01/12 07:36:25;;;;;;;24.53;15.23;;;;;;;;;;5021612;28;20690;-53
2024/01/12 07:38:51;;;;;;;23.73;14.33;;;;;;;;;;5015774;28;20746;-54
2024/01/12 07:41:17;;;;;;;20.37;12.73;;;;;;;;;;5019111;28;20895;-53
2024/01/12 07:43:43;;;;;;;26.73;14.07;;;;;;;;;;5026105;28;20433;-53
2024/01/12 07:46:10;;;;;;;32.37;15.40;;;;;;;;;;5018437;28;20414;-53
2024/01/12 07:48:36;;;;;;;24.97;14.53;;;;;;;;;;5013303;28;20462;-53
2024/01/12 07:51:02;;;;;;;26.07;13.93;;;;;;;;;;5028190;28;20194;-53
2024/01/12 07:53:29;;;;;;;23.77;14.23;;;;;;;;;;5023556;28;20430;-53
2024/01/12 07:55:55;;;;;;;23.17;13.73;;;;;;;;;;5014884;28;20476;-53
2024/01/12 07:58:21;;;;;;;25.13;14.20;;;;;;;;;;5022079;28;20421;-53
2024/01/12 08:00:48;;;;;;;27.63;14.63;;;;;;;;;;5016033;28;20526;-53
2024/01/12 08:03:14;;;;;;;28.33;14.10;;;;;;;;;;5028976;28;20519;-52
2024/01/12 08:05:40;;;;;;;23.67;13.90;;;;;;;;;;5021346;28;20512;-55
2024/01/12 08:08:06;;;;;;;27.23;15.00;;;;;;;;;;5020388;28;20413;-54
2024/01/12 08:10:32;;;;;;;22.67;13.63;;;;;;;;;;5020090;28;20425;-55
2024/01/12 08:12:58;;;;;;;23.93;13.53;;;;;;;;;;5023418;28;20950;-55
2024/01/12 08:15:24;;;;;;;24.13;14.43;;;;;;;;;;5011731;28;20457;-56
2024/01/12 08:17:50;;;;;;;26.93;14.17;;;;;;;;;;5014104;28;20567;-55
2024/01/12 08:20:16;;;;;;;25.67;14.77;;;;;;;;;;5012675;28;20963;-54
2024/01/12 08:22:42;;;;;;;26.67;15.30;;;;;;;;;;5013646;28;20443;-55
2024/01/12 08:25:09;;;;;;;24.60;13.43;;;;;;;;;;5009748;28;20634;-56
2024/01/12 08:27:35;;;;;;;23.67;13.53;;;;;;;;;;5015200;28;20433;-54
2024/01/12 08:30:01;;;;;;;21.23;12.97;;;;;;;;;;5017791;28;20414;-55
2024/01/12 08:32:27;;;;;;;23.97;14.50;;;;;;;;;;5020168;28;20174;-55
2024/01/12 08:34:53;;;;;;;24.97;13.83;;;;;;;;;;5017707;28;20412;-54
2024/01/12 08:37:19;;;;;;;26.40;14.00;;;;;;;;;;5014509;28;20436;-55
2024/01/12 08:39:45;;;;;;;27.07;14.10;;;;;;;;;;5017227;28;20921;-55
2024/01/12 08:42:11;;;;;;;23.57;13.17;;;;;;;;;;5024411;28;20791;-55
2024/01/12 08:44:37;;;;;;;21.23;13.33;;;;;;;;;;5017105;28;20531;-56
2024/01/12 08:47:03;;;;;;;23.53;13.90;;;;;;;;;;5014001;28;20418;-54
2024/01/12 08:49:29;;;;;;;24.97;14.13;;;;;;;;;;5016840;28;20426;-55
2024/01/12 08:51:56;;;;;;;23.60;13.40;;;;;;;;;;5029226;28;20416;-55
2024/01/12 08:57:25;;;;;;;25.30;13.33;;;;;;;;;;5019636;28;20424;-55
2024/01/12 08:59:51;;;;;;;24.20;13.10;;;;;;;;;;5035557;28;20410;-55
2024/01/12 09:02:17;;;;;;;23.53;13.23;;;;;;;;;;5027196;28;20496;-55
2024/01/12 09:04:43;;;;;;;25.03;14.83;;;;;;;;;;5020288;28;20473;-55
2024/01/12 09:07:09;;;;;;;23.93;13.17;;;;;;;;;;5019847;28;20168;-55
2024/01/12 09:09:36;;;;;;;25.20;13.33;;;;;;;;;;5027646;28;20174;-55
2024/01/12 09:12:02;;;;;;;27.03;15.67;;;;;;;;;;5022388;28;20416;-55
2024/01/12 09:14:28;;;;;;;23.47;12.97;;;;;;;;;;5021329;28;20931;-50
2024/01/12 09:16:54;;;;;;;28.43;15.23;;;;;;;;;;5024544;28;20295;-55
2024/01/12 09:19:20;;;;;;;24.10;15.43;;;;;;;;;;5023836;28;20414;-55
2024/01/12 09:21:46;;;;;;;24.37;13.23;;;;;;;;;;5019813;28;20186;-55
2024/01/12 09:24:12;;;;;;;24.83;13.63;;;;;;;;;;5027757;28;20177;-56
2024/01/12 09:26:38;;;;;;;21.00;13.93;;;;;;;;;;5029545;28;20661;-55
2024/01/12 09:29:04;;;;;;;24.27;14.07;;;;;;;;;;5026372;28;20220;-55
2024/01/12 09:31:30;;;;;;;23.20;12.90;;;;;;;;;;5031198;28;20307;-55
2024/01/12 09:33:58;;;;;;;23.27;14.60;;;;;;;;;;5022229;28;20960;-56
2024/01/12 09:36:24;;;;;;;24.93;13.27;;;;;;;;;;5023699;28;20469;-56
2024/01/12 09:38:50;;;;;;;23.53;13.90;;;;;;;;;;5018167;28;20422;-56
2024/01/12 09:41:18;;;;;;;23.90;14.00;;;;;;;;;;5016011;28;20456;-53
2024/01/12 09:43:45;;;;;;;23.43;13.43;;;;;;;;;;5021932;28;20506;-55
2024/01/12 09:46:11;;;;;;;24.30;13.50;;;;;;;;;;5018871;28;20952;-56
2024/01/12 09:48:38;;;;;;;19.97;13.30;;;;;;;;;;5023009;28;20921;-55
2024/01/12 09:51:05;;;;;;;26.57;14.20;;;;;;;;;;5013183;28;20429;-55
2024/01/12 09:53:32;;;;;;;22.90;13.43;;;;;;;;;;5026059;28;20428;-56
2024/01/12 09:55:58;;;;;;;26.60;15.47;;;;;;;;;;5017129;28;20808;-55
2024/01/12 09:58:24;;;;;;;23.97;14.33;;;;;;;;;;5025126;28;20170;-55
2024/01/12 10:00:51;;;;;;;24.50;13.13;;;;;;;;;;5019331;28;20450;-56
2024/01/12 10:03:18;;;;;;;24.70;14.03;;;;;;;;;;5021501;28;20409;-55
2024/01/12 10:05:47;;;;;;;18.27;12.10;;;;;;;;;;5028176;28;20429;-55
2024/01/12 10:08:13;;;;;;;23.53;13.33;;;;;;;;;;5023505;28;20418;-55
2024/01/12 10:10:40;;;;;;;20.93;13.77;;;;;;;;;;5024294;28;20432;-55
2024/01/12 10:13:06;;;;;;;21.00;12.67;;;;;;;;;;5014283;28;20416;-56
2024/01/12 10:15:39;;;;;;;22.63;12.47;;;;;;;;;;5019703;28;20810;-55
2024/01/12 10:18:06;;;;;;;25.07;13.50;;;;;;;;;;5021286;28;20814;-55
2024/01/12 10:20:36;;;;;;;20.37;11.23;;;;;;;;;;5020757;28;20919;-55
2024/01/12 10:23:03;;;;;;;18.17;11.83;;;;;;;;;;5025035;28;20948;-56
2024/01/12 10:25:29;;;;;;;19.40;11.53;;;;;;;;;;5022368;28;20455;-54
2024/01/12 10:27:58;;;;;;;18.03;11.43;;;;;;;;;;5023659;28;20430;-55
2024/01/12 10:30:24;;;;;;;16.20;10.50;;;;;;;;;;5021263;28;20301;-55
2024/01/12 10:32:51;;;;;;;15.53;9.50;;;;;;;;;;5025584;28;20500;-55
2024/01/12 10:35:20;;;;;;;17.73;10.30;;;;;;;;;;5025499;28;20205;-54
2024/01/12 10:37:46;;;;;;;19.33;10.50;;;;;;;;;;5018172;28;20429;-53
2024/01/12 10:40:13;;;;;;;21.80;12.40;;;;;;;;;;5026676;28;20181;-55
2024/01/12 10:42:39;;;;;;;15.23;10.53;;;;;;;;;;5012324;28;20460;-56
2024/01/12 10:45:06;;;;;;;21.43;10.97;;;;;;;;;;5021912;28;20844;-53
2024/01/12 10:47:34;;;;;;;18.90;10.33;;;;;;;;;;5021972;28;20903;-53
2024/01/12 10:50:07;;;;;;;20.43;11.53;;;;;;;;;;5028956;28;20190;-53
2024/01/12 10:52:39;;;;;;;19.90;10.97;;;;;;;;;;5028732;28;20427;-53
2024/01/12 10:55:10;;;;;;;18.63;11.97;;;;;;;;;;5017129;28;20604;-53
2024/01/12 10:57:37;;;;;;;17.20;10.07;;;;;;;;;;5028818;28;20431;-53
2024/01/12 11:00:08;;;;;;;18.57;11.37;;;;;;;;;;5019457;28;20926;-53
2024/01/12 11:02:35;;;;;;;18.43;11.50;;;;;;;;;;5027610;28;20931;-53
2024/01/12 11:05:01;;;;;;;18.97;11.83;;;;;;;;;;5019392;28;20452;-53
2024/01/12 11:07:27;;;;;;;19.23;12.77;;;;;;;;;;5024600;28;20257;-53
2024/01/12 11:09:54;;;;;;;18.83;11.90;;;;;;;;;;5016273;28;20186;-53
2024/01/12 11:12:20;;;;;;;18.00;10.70;;;;;;;;;;5012949;28;20917;-53
2024/01/12 11:14:46;;;;;;;21.00;12.23;;;;;;;;;;5020855;28;20183;-55
2024/01/12 11:17:12;;;;;;;21.33;12.20;;;;;;;;;;5017561;28;20638;-53
2024/01/12 11:19:38;;;;;;;17.83;12.20;;;;;;;;;;5028205;28;20401;-53
2024/01/12 11:22:07;;;;;;;19.27;12.30;;;;;;;;;;5020740;28;20683;-53
2024/01/12 11:24:34;;;;;;;21.63;12.37;;;;;;;;;;5025593;28;20177;-53
2024/01/12 11:27:01;;;;;;;17.93;11.40;;;;;;;;;;5015407;28;20418;-53
2024/01/12 11:29:30;;;;;;;16.63;11.53;;;;;;;;;;5016130;28;20805;-53
2024/01/12 11:32:00;;;;;;;19.77;12.93;;;;;;;;;;5012160;28;20753;-53
2024/01/12 11:34:29;;;;;;;21.40;11.60;;;;;;;;;;5028512;28;20421;-53
2024/01/12 11:36:59;;;;;;;17.87;11.90;;;;;;;;;;5022609;28;20514;-53
2024/01/12 11:39:25;;;;;;;21.13;13.47;;;;;;;;;;5015188;28;20417;-53
2024/01/12 11:41:56;;;;;;;18.10;12.00;;;;;;;;;;5016871;28;20949;-53
2024/01/12 11:44:22;;;;;;;18.67;13.07;;;;;;;;;;5026688;28;20275;-53
2024/01/12 11:46:49;;;;;;;19.60;11.67;;;;;;;;;;5015118;28;20846;-53
2024/01/12 11:49:15;;;;;;;22.13;14.03;;;;;;;;;;5024055;28;20719;-53
2024/01/12 11:51:43;;;;;;;22.47;12.87;;;;;;;;;;5024867;28;20439;-53
2024/01/12 11:54:09;;;;;;;18.37;12.50;;;;;;;;;;5018458;28;20838;-53
2024/01/12 11:56:35;;;;;;;18.10;12.13;;;;;;;;;;5032171;28;20922;-50
2024/01/12 11:59:01;;;;;;;19.37;11.67;;;;;;;;;;5019117;28;20417;-51
2024/01/12 12:01:27;;;;;;;21.80;11.90;;;;;;;;;;5014596;28;21017;-51
2024/01/12 12:03:54;;;;;;;19.03;11.83;;;;;;;;;;5022589;28;20435;-51
2024/01/12 12:06:20;;;;;;;20.43;11.87;;;;;;;;;;5018509;28;20171;-50
2024/01/12 12:08:46;;;;;;;16.07;11.43;;;;;;;;;;5023304;28;20425;-52
2024/01/12 12:11:13;;;;;;;22.53;12.87;;;;;;;;;;5015056;28;20454;-50
2024/01/12 12:13:41;;;;;;;17.13;10.87;;;;;;;;;;5024205;28;20579;-49
2024/01/12 12:16:08;;;;;;;18.67;10.27;;;;;;;;;;5017950;28;20485;-51
2024/01/12 12:18:35;;;;;;;17.73;11.50;;;;;;;;;;5024012;28;20433;-51
2024/01/12 12:21:01;;;;;;;22.93;12.07;;;;;;;;;;5025418;28;20170;-52
2024/01/12 12:23:28;;;;;;;14.27;10.27;;;;;;;;;;5022228;28;20436;-50
2024/01/12 12:25:54;;;;;;;16.83;10.03;;;;;;;;;;5025944;28;20490;-51
2024/01/12 12:28:21;;;;;;;18.40;11.57;;;;;;;;;;5023135;28;20444;-51
2024/01/12 12:30:47;;;;;;;16.07;10.90;;;;;;;;;;5027888;28;20189;-51
2024/01/12 12:33:13;;;;;;;13.43;9.97;;;;;;;;;;5027848;28;20485;-51
2024/01/12 12:35:39;;;;;;;16.97;10.00;;;;;;;;;;5021183;28;22665;-50
2024/01/12 12:38:06;;;;;;;14.90;10.30;;;;;;;;;;5024471;28;20189;-52
2024/01/12 12:40:32;;;;;;;13.67;9.53;;;;;;;;;;5022099;28;20943;-51
2024/01/12 12:42:58;;;;;;;18.50;10.53;;;;;;;;;;5026483;28;20432;-52
2024/01/12 12:45:25;;;;;;;16.87;10.00;;;;;;;;;;5009490;28;20226;-50
2024/01/12 12:47:51;;;;;;;15.03;9.60;;;;;;;;;;5029892;28;20440;-50
2024/01/12 12:50:17;;;;;;;15.43;10.27;;;;;;;;;;5027909;28;20475;-54
2024/01/12 12:52:47;;;;;;;12.30;9.30;;;;;;;;;;5021774;28;20205;-51
2024/01/12 12:55:13;;;;;;;15.33;9.83;;;;;;;;;;5026341;28;20963;-50
2024/01/12 12:57:40;;;;;;;15.57;10.33;;;;;;;;;;5025585;28;20427;-50
2024/01/12 13:00:09;;;;;;;15.80;10.10;;;;;;;;;;5021947;28;20762;-50
2024/01/12 13:02:35;;;;;;;15.10;9.23;;;;;;;;;;5026313;28;20992;-50
2024/01/12 13:05:03;;;;;;;15.13;9.03;;;;;;;;;;5026020;28;20518;-51
2024/01/12 13:07:29;;;;;;;18.07;10.77;;;;;;;;;;5027230;28;20439;-53
2024/01/12 13:09:55;;;;;;;20.20;10.37;;;;;;;;;;5026604;28;20954;-53
2024/01/12 13:12:21;;;;;;;17.70;8.97;;;;;;;;;;5026902;28;20521;-53
2024/01/12 13:14:48;;;;;;;14.30;9.10;;;;;;;;;;5025372;28;20456;-53
2024/01/12 13:20:36;;;;;;;19.67;9.93;;;;;;;;;;5017323;28;20191;-53
2024/01/12 13:23:02;;;;;;;13.87;8.57;;;;;;;;;;5028076;28;20432;-53
2024/01/12 13:25:29;;;;;;;15.37;9.27;;;;;;;;;;5024577;28;20212;-53
2024/01/12 13:27:55;;;;;;;16.87;9.93;;;;;;;;;;5021649;28;21028;-53
2024/01/12 13:30:21;;;;;;;14.20;8.83;;;;;;;;;;5024999;28;20409;-53
2024/01/12 13:32:47;;;;;;;20.20;10.07;;;;;;;;;;5026035;28;20185;-53
2024/01/12 13:35:13;;;;;;;14.17;9.17;;;;;;;;;;5025571;28;20595;-53
2024/01/12 13:37:39;;;;;;;14.20;8.87;;;;;;;;;;5025581;28;20472;-53
2024/01/12 13:40:05;;;;;;;13.50;8.80;;;;;;;;;;5022708;28;20410;-52
2024/01/12 13:42:31;;;;;;;14.93;9.60;;;;;;;;;;5017838;28;20201;-53
2024/01/12 13:44:58;;;;;;;13.67;9.10;;;;;;;;;;5011032;28;20255;-53
2024/01/12 13:47:24;;;;;;;14.37;9.00;;;;;;;;;;5010537;28;20426;-53
2024/01/12 13:49:50;;;;;;;12.00;9.03;;;;;;;;;;5002281;28;20800;-52
2024/01/12 13:52:16;;;;;;;14.53;9.43;;;;;;;;;;4999049;28;20229;-53
2024/01/12 13:54:42;;;;;;;17.17;9.80;;;;;;;;;;5004872;28;20551;-53
2024/01/12 13:57:08;;;;;;;16.27;9.70;;;;;;;;;;5000344;28;20469;-53
2024/01/12 13:59:36;;;;;;;18.47;10.93;;;;;;;;;;5001284;28;20317;-53
2024/01/12 14:02:02;;;;;;;13.37;9.60;;;;;;;;;;5001104;28;20270;-53
2024/01/12 14:04:28;;;;;;;14.37;9.03;;;;;;;;;;5003915;28;20190;-53
2024/01/12 14:06:55;;;;;;;15.30;9.07;;;;;;;;;;5002883;28;20178;-53
2024/01/12 14:09:21;;;;;;;16.33;9.10;;;;;;;;;;4999241;28;20218;-52
2024/01/12 14:11:47;;;;;;;12.63;9.00;;;;;;;;;;5010193;28;20525;-53
2024/01/12 14:14:13;;;;;;;12.87;9.80;;;;;;;;;;5002226;28;20967;-53
2024/01/12 14:16:39;;;;;;;16.50;10.17;;;;;;;;;;4983388;28;20473;-52
2024/01/12 14:19:05;;;;;;;16.57;10.77;;;;;;;;;;5004319;28;20188;-50